Strona główna
METAR-TAF:

METAR-TAF

Lotnisko :

Port lotniczy Kuwejt

Kuwejt, Kuwejt

Szerokość geograficzna: 29-13N, Długość geograficzna: 047-59E, wysokość: 55 m

Aktualna obserwacja pogody

Raport powstał 59 minut temu, godzina 03:00 UTC
Wiatr 9 kt od północny zachód
Temperatura 33°C
Wilgotność 17%
Ciśnienie 998 hPa
Widzialność: 6000 m
bezchmurnie

METAR: OKBK 150300Z 32009KT 6000 SKC 33/05 Q0998 NOSIG

czas: 06:59 (03:59 UTC)

Prognoza

Raport powstał 5 godziny i 14 minut temu, godzina 22:45 UTC
Prognoza ważna od 15 godzina 00 UTC do 16 godzina 06 UTC
Wiatr 15 kt od północno-północny zachód w porywach dochodzący do 30 kt
Widzialność: 6000 m
Przejściowo
od 15 godzina 00 UTC do 15 godzina 03 UTC
Widzialność: 4000 m
zawieja pyłowa
Przejściowo
od 15 godzina 06 UTC do 15 godzina 16 UTC
Widzialność: 2000 m
Przejściowo
od 15 godzina 09 UTC do 15 godzina 14 UTC
Widzialność: 1000 m

TAF: OKBK 142245Z 1500/1606 34015G30KT 6000 NSC TEMPO 1500/1503 4000 BLDU TEMPO 1506/1516 2000 TEMPO 1509/1514 1000

Obserwacja i prognoza pogody dla ponad 4000 lotnisk (raport METAR i TAF).

Dostępne stacje oznaczono żółtymi i czerwonymi punktami na mapie.

Najedź kursorem aby zobaczyć nazwę stacji.

Kliknij aby zobaczyć obserwacje i prognozy pogody.

Aby zmienić mapę: kliknij na zielony przycisk z czarnym krzyżykiem, aby powiększyć; na zielony przycisk z myślnikiem, aby pomniejszyć; na zielone strzałki, aby przejść do map sąsiednich.


METAR-TAF: